Salem, South Dakota
Current Conditions -  °F | °C
As of 11:35 PM on Thursday 30 Oct 2014 (Local Time) from KMDS Reporting Station
Clear Clear  
Wind Chill: -8°   Ceiling: Unl
Heat Index: -2°   Visibility: 10mi
Dew Point: -7°   Wind: 14mph
Humidity: 69%   Direction: 10°N
Pressure: 30.48"   Gusts: NA
Location:  43.72°N, 97.39°W
Report Text: KMDS 310435Z AUTO 01012KT 10SM CLR M02/M07 A3048 RMK AO2
Loading
Personal Weather Stations






























Interactive Weather Map
Tropical Storm Tracking
New forecast layout! Learn more

10-Day Weather Forecast

Advertisements
Track Severe Weather on mobile